Terminal Aerodrome Forecast
Issued by NWS Grand Junction, CO

Home | Current Version | Previous Version | Text Only | Print | Product List | Glossary On
Versions: 1 2 3 4 5 6 7 8 9 10 11 12
000
FTUS45 KGJT 201133
TAFGJT
TAF
KGJT 201133Z 2012/2112 00000KT P6SM OVC150
     FM201800 17008KT P6SM VCSH OVC070
     FM202100 20010KT P6SM -RA OVC070
     FM210000 23006KT 6SM -RA SCT040 OVC050
     FM210200 25006KT 4SM -RA BKN025 OVC030
     FM210400 22005KT 2SM -RASN BKN020 OVC030
     FM210700 28004KT 3SM -SNRA OVC020=

USA.gov is the U.S. government's official web portal to all federal, state and local government web resources and services.